Time;durP1;ratioP1;P1;durP2;ratioP2;P2;SDS_P1;SDS_P2;PMS_P1;PMS_P2;Temp;Humidity;BMP_temperature;BMP_pressure;BME280_temperature;BME280_humidity;BME280_pressure;Samples;Min_cycle;Max_cycle;Signal;HPM_P1;HPM_P2
2023/08/14 00:01:02;;;;;;;6.33;4.97;;;21.60;99.90;;;;;;4990274;28;20470;-60
2023/08/14 00:03:29;;;;;;;9.43;4.80;;;21.60;99.90;;;;;;4976897;28;20530;-56
2023/08/14 00:05:56;;;;;;;7.47;4.37;;;21.50;99.90;;;;;;4976772;28;20505;-60
2023/08/14 00:08:24;;;;;;;6.07;4.37;;;21.50;99.90;;;;;;4976477;28;20538;-60
2023/08/14 00:10:51;;;;;;;9.60;4.97;;;21.40;99.90;;;;;;4976765;28;20475;-62
2023/08/14 00:13:20;;;;;;;7.00;3.73;;;21.40;99.90;;;;;;4976577;28;20557;-60
2023/08/14 00:15:47;;;;;;;5.80;4.63;;;22.90;99.90;;;;;;4976375;28;20461;-60
2023/08/14 00:18:13;;;;;;;7.50;5.27;;;21.40;99.90;;;;;;4976105;28;20577;-56
2023/08/14 00:20:40;;;;;;;7.27;5.20;;;21.40;99.90;;;;;;4976566;28;20489;-59
2023/08/14 00:23:09;;;;;;;4.20;3.50;;;21.40;99.90;;;;;;4995655;28;20466;-48
2023/08/14 00:25:38;;;;;;;8.20;4.60;;;21.40;99.90;;;;;;5000128;28;20415;-52
2023/08/14 00:28:05;;;;;;;5.90;4.33;;;21.40;99.90;;;;;;5000135;28;20408;-48
2023/08/14 00:30:32;;;;;;;5.63;5.00;;;21.40;99.90;;;;;;4999978;28;20410;-56
2023/08/14 00:32:59;;;;;;;5.63;4.30;;;21.30;99.90;;;;;;4996563;28;20482;-56
2023/08/14 00:35:26;;;;;;;5.27;4.53;;;21.40;99.90;;;;;;4996779;28;20454;-55
2023/08/14 00:37:53;;;;;;;4.77;4.27;;;21.40;99.90;;;;;;4982218;28;20469;-59
2023/08/14 00:40:20;;;;;;;6.53;4.87;;;21.30;99.90;;;;;;4976284;28;20541;-60
2023/08/14 00:42:48;;;;;;;6.37;4.70;;;21.30;99.90;;;;;;4983288;28;20490;-50
2023/08/14 00:45:15;;;;;;;6.90;4.67;;;21.40;99.90;;;;;;4999826;28;20416;-52
2023/08/14 00:47:45;;;;;;;9.73;6.23;;;21.40;99.90;;;;;;4996929;28;20431;-58
2023/08/14 00:50:12;;;;;;;8.63;6.17;;;21.40;99.90;;;;;;4996585;28;20478;-60
2023/08/14 00:52:42;;;;;;;6.60;4.60;;;21.40;99.90;;;;;;4984050;28;20487;-60
2023/08/14 00:55:14;;;;;;;5.33;4.20;;;21.50;99.90;;;;;;4982608;28;20478;-56
2023/08/14 00:57:41;;;;;;;5.63;5.03;;;21.50;99.90;;;;;;4979507;28;20534;-60
2023/08/14 01:00:12;;;;;;;5.73;5.13;;;21.50;99.90;;;;;;4976035;28;20483;-61
2023/08/14 01:02:40;;;;;;;7.17;5.40;;;21.50;99.90;;;;;;4975942;28;20534;-60
2023/08/14 01:05:07;;;;;;;5.90;5.00;;;21.50;99.90;;;;;;4976040;28;20558;-60
2023/08/14 01:07:34;;;;;;;5.70;4.17;;;21.50;99.90;;;;;;4975979;28;20793;-58
2023/08/14 01:10:02;;;;;;;8.47;4.90;;;21.50;99.90;;;;;;4990801;28;20423;-53
2023/08/14 01:12:42;;;;;;;6.07;4.23;;;21.50;99.90;;;;;;4999516;28;20442;-48
2023/08/14 01:15:15;;;;;;;6.30;4.70;;;21.50;99.90;;;;;;4983945;28;20423;-60
2023/08/14 01:17:49;;;;;;;6.30;4.50;;;21.50;99.90;;;;;;4975609;28;20435;-59
2023/08/14 01:20:19;;;;;;;5.00;4.20;;;21.50;99.90;;;;;;4975513;28;21037;-60
2023/08/14 01:22:55;;;;;;;5.23;4.83;;;21.50;99.90;;;;;;4998335;28;20430;-51
2023/08/14 01:25:28;;;;;;;6.17;5.03;;;21.40;99.90;;;;;;4999410;28;20466;-51
2023/08/14 01:27:56;;;;;;;5.53;5.03;;;21.40;99.90;;;;;;5016850;23;21676;-69
2023/08/14 01:30:23;;;;;;;6.93;6.23;;;21.30;99.90;;;;;;5034702;28;20464;-69
2023/08/14 01:35:21;;;;;;;5.73;4.47;;;21.20;99.90;;;;;;5030834;28;20464;-61
2023/08/14 01:37:56;;;;;;;5.37;4.87;;;21.90;99.90;;;;;;5032838;28;20457;-62
2023/08/14 01:40:31;;;;;;;5.40;4.93;;;21.10;99.90;;;;;;5023931;28;20516;-61
2023/08/14 01:43:01;;;;;;;6.87;5.10;;;21.10;99.90;;;;;;5024038;28;20456;-60
2023/08/14 01:45:30;;;;;;;5.20;4.70;;;21.00;99.90;;;;;;5020838;28;20465;-60
2023/08/14 01:47:59;;;;;;;4.67;4.27;;;21.00;99.90;;;;;;5020953;28;20473;-62
2023/08/14 01:50:28;;;;;;;5.47;4.80;;;21.00;99.90;;;;;;5019038;28;20535;-60
2023/08/14 01:52:56;;;;;;;5.90;4.60;;;21.30;99.90;;;;;;5017981;28;20592;-60
2023/08/14 01:55:24;;;;;;;5.60;4.97;;;21.00;99.90;;;;;;5018259;28;20459;-61
2023/08/14 01:57:53;;;;;;;5.93;4.93;;;21.00;99.90;;;;;;5018078;28;20472;-60
2023/08/14 02:00:20;;;;;;;7.53;5.03;;;20.90;99.90;;;;;;5017845;28;20901;-59
2023/08/14 02:02:47;;;;;;;6.10;5.30;;;20.90;99.90;;;;;;5017942;28;20515;-55
2023/08/14 02:05:14;;;;;;;7.27;5.10;;;20.80;99.90;;;;;;5017912;28;20858;-61
2023/08/14 02:07:42;;;;;;;5.53;5.03;;;20.80;99.90;;;;;;5017747;28;20511;-60
2023/08/14 02:10:09;;;;;;;5.80;5.20;;;20.90;99.90;;;;;;5017561;28;20571;-60
2023/08/14 02:12:36;;;;;;;5.73;4.50;;;20.90;99.90;;;;;;5017780;28;20572;-60
2023/08/14 02:15:06;;;;;;;4.90;4.50;;;20.80;99.90;;;;;;5017416;28;20564;-59
2023/08/14 02:17:32;;;;;;;6.23;3.90;;;20.80;99.90;;;;;;5017719;28;20830;-61
2023/08/14 02:19:59;;;;;;;10.00;5.00;;;20.70;99.90;;;;;;5026264;28;20484;-49
2023/08/14 02:22:26;;;;;;;8.43;5.27;;;20.70;99.90;;;;;;5040830;28;20449;-48
2023/08/14 02:24:53;;;;;;;7.27;5.00;;;20.60;99.90;;;;;;5041031;28;20445;-49
2023/08/14 02:27:20;;;;;;;5.10;4.70;;;20.60;99.90;;;;;;5023622;28;20471;-62
2023/08/14 02:29:47;;;;;;;7.93;5.17;;;20.50;99.90;;;;;;5024207;28;20520;-48
2023/08/14 02:32:15;;;;;;;6.70;4.93;;;20.50;99.90;;;;;;5040727;28;20441;-49
2023/08/14 02:34:47;;;;;;;5.20;4.70;;;20.40;99.90;;;;;;5040806;28;20440;-51
2023/08/14 02:37:17;;;;;;;5.57;4.80;;;20.40;99.90;;;;;;5040710;28;20433;-46
2023/08/14 02:39:47;;;;;;;5.67;4.50;;;20.40;99.90;;;;;;5039054;28;20434;-58
2023/08/14 02:42:16;;;;;;;8.17;5.00;;;20.30;99.90;;;;;;5037790;28;20406;-59
2023/08/14 02:44:43;;;;;;;6.10;5.00;;;20.30;99.90;;;;;;5021613;28;20804;-58
2023/08/14 02:47:10;;;;;;;5.80;4.80;;;21.80;99.90;;;;;;5016964;28;20457;-59
2023/08/14 02:49:38;;;;;;;8.73;4.07;;;20.20;99.90;;;;;;5017142;28;20552;-61
2023/08/14 02:52:06;;;;;;;5.87;4.70;;;20.20;99.90;;;;;;5017035;28;20507;-59
2023/08/14 02:54:33;;;;;;;5.57;3.70;;;20.20;99.90;;;;;;5017007;28;20492;-61
2023/08/14 02:57:00;;;;;;;6.00;4.97;;;20.10;99.90;;;;;;5017994;28;20536;-60
2023/08/14 02:59:29;;;;;;;6.70;5.50;;;20.10;99.90;;;;;;5019471;28;20480;-57
2023/08/14 03:01:56;;;;;;;8.60;4.10;;;20.10;99.90;;;;;;5020496;28;20444;-60
2023/08/14 03:04:22;;;;;;;12.17;5.90;;;20.00;99.90;;;;;;5022910;28;20437;-60
2023/08/14 03:06:51;;;;;;;5.60;4.37;;;20.00;99.90;;;;;;5020204;28;20521;-61
2023/08/14 03:09:20;;;;;;;3.93;3.50;;;20.00;99.90;;;;;;5023637;28;20477;-59
2023/08/14 03:11:47;;;;;;;6.60;5.17;;;20.00;99.90;;;;;;5020543;28;20504;-60
2023/08/14 03:14:14;;;;;;;10.63;4.37;;;20.00;99.90;;;;;;5019145;28;20567;-60
2023/08/14 03:16:41;;;;;;;9.23;5.17;;;20.00;99.90;;;;;;5019632;28;21005;-60
2023/08/14 03:19:08;;;;;;;5.50;4.30;;;19.90;99.90;;;;;;5017372;28;20516;-61
2023/08/14 03:21:35;;;;;;;9.47;5.50;;;19.90;99.90;;;;;;5019595;28;20529;-61
2023/08/14 03:24:03;;;;;;;5.43;4.20;;;19.90;99.90;;;;;;5017735;28;20829;-59
2023/08/14 03:26:31;;;;;;;5.40;4.07;;;19.80;99.90;;;;;;5017458;28;20446;-60
2023/08/14 03:28:58;;;;;;;10.33;4.40;;;19.80;99.90;;;;;;5016901;28;20508;-59
2023/08/14 03:31:25;;;;;;;5.13;4.03;;;19.80;99.90;;;;;;5017087;28;20540;-59
2023/08/14 03:33:52;;;;;;;5.20;4.60;;;19.80;99.90;;;;;;5017236;28;20516;-60
2023/08/14 03:36:18;;;;;;;7.70;5.57;;;19.70;99.90;;;;;;5017617;28;20524;-60
2023/08/14 03:38:45;;;;;;;4.90;4.50;;;19.60;99.90;;;;;;5018981;28;20499;-60
2023/08/14 03:41:14;;;;;;;4.30;4.00;;;19.60;99.90;;;;;;5016245;28;20445;-61
2023/08/14 03:43:41;;;;;;;7.70;5.70;;;19.60;99.90;;;;;;5015875;28;20548;-60
2023/08/14 03:46:11;;;;;;;6.87;4.77;;;19.60;99.90;;;;;;5016037;28;20536;-62
2023/08/14 03:48:39;;;;;;;4.33;3.80;;;19.60;99.90;;;;;;5016146;28;20847;-59
2023/08/14 03:51:06;;;;;;;7.10;4.60;;;19.50;99.90;;;;;;5015511;28;20764;-57
2023/08/14 03:53:34;;;;;;;7.13;4.60;;;19.50;99.90;;;;;;5038055;28;20472;-49
2023/08/14 03:56:01;;;;;;;5.97;4.30;;;19.50;99.90;;;;;;5034396;28;20761;-61
2023/08/14 03:58:30;;;;;;;9.40;4.70;;;19.50;99.90;;;;;;5015619;28;20978;-60
2023/08/14 04:00:56;;;;;;;7.13;4.57;;;19.50;99.90;;;;;;5015632;28;20788;-60
2023/08/14 04:03:23;;;;;;;5.27;4.43;;;19.50;99.90;;;;;;5015697;28;20571;-62
2023/08/14 04:05:58;;;;;;;4.93;4.40;;;19.40;99.90;;;;;;5021112;28;20546;-52
2023/08/14 04:08:25;;;;;;;10.60;4.80;;;19.40;99.90;;;;;;5039131;28;20413;-49
2023/08/14 04:10:57;;;;;;;5.60;4.83;;;19.40;99.90;;;;;;5039075;28;20429;-52
2023/08/14 04:13:25;;;;;;;8.00;4.23;;;19.40;99.90;;;;;;5036906;28;20485;-56
2023/08/14 04:15:59;;;;;;;6.13;4.70;;;19.40;99.90;;;;;;5033386;28;20465;-61
2023/08/14 04:18:26;;;;;;;5.80;5.03;;;19.40;99.90;;;;;;5015475;28;20473;-59
2023/08/14 04:20:53;;;;;;;5.77;4.83;;;19.40;99.90;;;;;;5015515;28;20473;-61
2023/08/14 04:23:20;;;;;;;6.50;5.10;;;19.40;99.90;;;;;;5015090;28;20460;-61
2023/08/14 04:25:47;;;;;;;5.40;4.70;;;19.40;99.90;;;;;;5015447;28;20515;-60
2023/08/14 04:28:13;;;;;;;6.83;5.53;;;19.40;99.90;;;;;;5016734;28;20545;-59
2023/08/14 04:30:40;;;;;;;5.70;4.97;;;19.40;99.90;;;;;;5015651;28;20495;-61
2023/08/14 04:33:11;;;;;;;6.33;4.80;;;19.40;99.90;;;;;;5023031;28;20453;-51
2023/08/14 04:35:38;;;;;;;7.73;5.67;;;19.40;99.90;;;;;;5038642;28;20487;-49
2023/08/14 04:38:05;;;;;;;6.53;5.50;;;19.40;99.90;;;;;;5021071;28;20492;-59
2023/08/14 04:40:32;;;;;;;8.43;5.10;;;19.50;99.90;;;;;;5014848;28;20464;-62
2023/08/14 04:42:59;;;;;;;6.53;4.80;;;19.50;99.90;;;;;;5015377;28;20445;-62
2023/08/14 04:45:26;;;;;;;5.30;4.73;;;19.50;99.90;;;;;;5025635;28;20421;-50
2023/08/14 04:47:53;;;;;;;5.30;4.80;;;19.50;99.90;;;;;;5038457;28;20428;-53
2023/08/14 04:50:27;;;;;;;5.53;5.03;;;19.50;99.90;;;;;;5038532;28;20422;-52
2023/08/14 04:52:53;;;;;;;5.87;4.83;;;19.50;99.90;;;;;;5037083;28;20464;-56
2023/08/14 04:55:23;;;;;;;6.23;5.00;;;19.60;99.90;;;;;;5036077;28;20499;-55
2023/08/14 04:57:50;;;;;;;5.73;5.00;;;19.50;99.90;;;;;;5035751;28;20473;-55
2023/08/14 05:00:17;;;;;;;5.77;5.27;;;19.50;99.90;;;;;;5033944;28;20441;-60
2023/08/14 05:02:44;;;;;;;5.20;4.70;;;19.60;99.90;;;;;;5014775;28;20555;-60
2023/08/14 05:05:11;;;;;;;7.43;5.00;;;19.60;99.90;;;;;;5014869;28;20506;-60
2023/08/14 05:07:39;;;;;;;6.70;5.83;;;19.70;99.90;;;;;;5015256;28;20485;-59
2023/08/14 05:10:07;;;;;;;5.87;5.10;;;19.60;99.90;;;;;;5016161;28;20492;-61
2023/08/14 05:12:34;;;;;;;6.27;5.60;;;19.70;99.90;;;;;;5014519;28;20480;-61
2023/08/14 05:15:01;;;;;;;9.80;4.93;;;19.70;99.90;;;;;;5014457;28;20524;-62
2023/08/14 05:17:28;;;;;;;8.50;5.10;;;19.80;99.90;;;;;;5014546;28;20540;-62
2023/08/14 05:19:55;;;;;;;14.07;5.70;;;19.80;99.90;;;;;;5014802;28;20473;-60
2023/08/14 05:22:26;;;;;;;9.67;4.33;;;19.80;99.90;;;;;;5014791;28;20779;-60
2023/08/14 05:24:54;;;;;;;5.90;4.40;;;19.90;99.90;;;;;;5014318;28;20524;-60
2023/08/14 05:27:21;;;;;;;5.43;4.90;;;19.90;99.90;;;;;;5014520;28;20455;-61
2023/08/14 05:29:48;;;;;;;6.57;5.27;;;19.90;99.90;;;;;;5014585;28;20504;-60
2023/08/14 05:32:15;;;;;;;8.37;4.77;;;20.00;99.90;;;;;;5014024;28;20476;-62
2023/08/14 05:34:42;;;;;;;4.87;4.30;;;20.00;99.90;;;;;;5014282;28;20576;-59
2023/08/14 05:37:08;;;;;;;7.10;5.20;;;20.10;99.90;;;;;;5014294;28;20480;-60
2023/08/14 05:39:35;;;;;;;7.00;4.93;;;20.10;99.90;;;;;;5014394;28;20500;-61
2023/08/14 05:42:04;;;;;;;10.30;5.07;;;20.10;99.90;;;;;;5014346;28;20479;-61
2023/08/14 05:44:30;;;;;;;7.67;6.87;;;20.20;99.90;;;;;;5014745;28;20421;-59
2023/08/14 05:46:57;;;;;;;5.27;4.77;;;20.20;99.90;;;;;;5016493;28;20525;-60
2023/08/14 05:49:26;;;;;;;4.93;4.40;;;20.30;99.90;;;;;;5018252;28;20526;-59
2023/08/14 05:51:53;;;;;;;5.17;4.60;;;20.30;99.90;;;;;;5014413;28;20449;-59
2023/08/14 05:54:19;;;;;;;4.93;4.43;;;20.40;99.90;;;;;;5014087;28;20489;-59
2023/08/14 05:56:47;;;;;;;6.27;4.57;;;20.40;99.90;;;;;;5014348;28;20533;-61
2023/08/14 05:59:16;;;;;;;5.00;4.43;;;20.50;99.90;;;;;;5014069;28;20984;-59
2023/08/14 06:01:42;;;;;;;4.57;4.17;;;20.50;99.90;;;;;;5014438;28;20477;-60
2023/08/14 06:04:09;;;;;;;6.77;4.40;;;20.60;99.90;;;;;;5016615;28;20484;-60
2023/08/14 06:06:36;;;;;;;6.67;4.90;;;20.70;99.90;;;;;;5015776;28;20544;-61
2023/08/14 06:09:03;;;;;;;5.50;4.80;;;20.80;99.90;;;;;;5015357;28;20532;-59
2023/08/14 06:11:30;;;;;;;5.00;3.43;;;20.80;99.90;;;;;;5014390;28;20531;-62
2023/08/14 06:13:57;;;;;;;5.43;4.90;;;20.90;99.90;;;;;;5013969;28;20484;-57
2023/08/14 06:16:25;;;;;;;4.27;3.87;;;21.00;99.90;;;;;;5023893;28;20544;-56
2023/08/14 06:18:52;;;;;;;7.77;4.63;;;21.00;99.90;;;;;;5018841;28;20950;-61
2023/08/14 06:21:19;;;;;;;7.43;5.50;;;21.10;99.90;;;;;;5017352;28;20500;-61
2023/08/14 06:23:46;;;;;;;5.10;4.60;;;21.10;99.90;;;;;;5017446;28;20875;-60
2023/08/14 06:26:13;;;;;;;5.20;4.70;;;21.20;99.90;;;;;;5018160;28;20985;-59
2023/08/14 06:28:40;;;;;;;8.20;4.67;;;21.20;99.90;;;;;;5018626;28;20472;-60
2023/08/14 06:31:06;;;;;;;7.20;4.77;;;21.30;99.90;;;;;;5017460;28;20491;-59
2023/08/14 06:33:35;;;;;;;8.70;4.70;;;21.40;99.90;;;;;;5017018;28;20486;-61
2023/08/14 06:36:02;;;;;;;6.87;5.10;;;21.50;99.90;;;;;;5017126;28;20488;-60
2023/08/14 06:38:28;;;;;;;7.33;3.97;;;21.60;99.90;;;;;;5017460;28;20496;-61
2023/08/14 06:40:55;;;;;;;6.10;4.10;;;21.70;99.90;;;;;;5017084;28;20489;-60
2023/08/14 06:43:22;;;;;;;5.27;4.30;;;21.70;99.90;;;;;;5018008;28;20501;-59
2023/08/14 06:45:49;;;;;;;8.50;4.23;;;21.80;99.90;;;;;;5019972;28;20507;-59
2023/08/14 06:48:16;;;;;;;12.43;4.00;;;21.90;99.90;;;;;;5020603;28;20481;-59
2023/08/14 06:50:44;;;;;;;6.73;4.70;;;22.00;99.90;;;;;;5019736;28;20528;-60
2023/08/14 06:53:11;;;;;;;10.43;5.27;;;22.10;99.90;;;;;;5022168;28;20544;-62
2023/08/14 06:55:38;;;;;;;11.17;4.77;;;22.10;99.90;;;;;;5020215;28;20524;-61
2023/08/14 06:58:05;;;;;;;3.77;3.40;;;22.20;99.90;;;;;;5019058;28;20449;-61
2023/08/14 07:00:32;;;;;;;10.97;4.43;;;22.30;99.90;;;;;;5016848;28;20527;-60
2023/08/14 07:02:58;;;;;;;6.40;4.40;;;22.40;99.90;;;;;;5017267;28;20457;-60
2023/08/14 07:05:25;;;;;;;5.10;3.80;;;22.50;99.90;;;;;;5017354;28;20500;-62
2023/08/14 07:07:55;;;;;;;5.10;3.90;;;22.50;99.90;;;;;;5016816;28;20816;-61
2023/08/14 07:10:21;;;;;;;6.17;4.33;;;22.60;99.90;;;;;;5014632;28;20546;-59
2023/08/14 07:12:49;;;;;;;5.00;3.60;;;22.70;99.90;;;;;;5019779;28;20481;-62
2023/08/14 07:15:16;;;;;;;10.17;4.17;;;22.70;99.90;;;;;;5018243;28;20948;-59
2023/08/14 07:17:42;;;;;;;31.00;17.47;;;22.80;99.90;;;;;;5019488;28;20445;-61
2023/08/14 07:20:11;;;;;;;14.70;9.80;;;22.90;99.90;;;;;;5017411;28;20497;-63
2023/08/14 07:22:37;;;;;;;6.33;4.13;;;23.00;99.90;;;;;;5018002;28;20434;-58
2023/08/14 07:25:07;;;;;;;7.20;4.13;;;23.00;99.90;;;;;;5019679;28;20445;-60
2023/08/14 07:27:34;;;;;;;13.13;7.47;;;22.30;99.90;;;;;;5020656;28;20437;-60
2023/08/14 07:30:01;;;;;;;5.50;3.70;;;23.20;99.90;;;;;;5019571;28;20461;-61
2023/08/14 07:32:28;;;;;;;7.00;5.30;;;23.30;99.90;;;;;;5021430;28;20495;-59
2023/08/14 07:34:55;;;;;;;5.60;4.00;;;23.40;99.90;;;;;;5003720;28;20547;-59
2023/08/14 07:37:21;;;;;;;5.43;3.70;;;23.50;99.90;;;;;;4996104;28;20473;-61
2023/08/14 07:39:48;;;;;;;4.40;3.50;;;23.60;99.90;;;;;;4996520;28;20537;-63
2023/08/14 07:42:16;;;;;;;4.53;3.40;;;23.70;99.90;;;;;;5014608;28;20539;-61
2023/08/14 07:44:43;;;;;;;6.73;3.60;;;23.80;99.90;;;;;;5018246;28;20512;-61
2023/08/14 07:47:12;;;;;;;10.97;3.20;;;24.00;99.90;;;;;;5018164;28;20507;-63
2023/08/14 07:49:39;;;;;;;4.60;3.50;;;24.10;99.90;;;;;;5016026;28;20503;-59
2023/08/14 07:52:07;;;;;;;5.93;3.23;;;24.30;99.90;;;;;;5015901;28;20465;-59
2023/08/14 07:54:33;;;;;;;8.33;3.70;;;24.70;99.90;;;;;;5015835;28;20535;-63
2023/08/14 07:57:00;;;;;;;9.47;3.53;;;25.50;99.90;;;;;;5014863;28;20929;-61
2023/08/14 07:59:28;;;;;;;3.63;2.77;;;27.20;99.90;;;;;;5014637;28;20990;-61
2023/08/14 08:01:55;;;;;;;3.57;3.00;;;29.10;99.90;;;;;;5015552;28;20487;-62
2023/08/14 08:04:22;;;;;;;5.67;4.03;;;31.00;99.90;;;;;;5015118;28;20497;-62
2023/08/14 08:06:49;;;;;;;5.80;4.00;;;32.70;94.30;;;;;;5016584;28;20465;-59
2023/08/14 08:09:16;;;;;;;4.60;3.80;;;34.00;85.10;;;;;;5016343;28;20527;-60
2023/08/14 08:11:45;;;;;;;3.70;3.40;;;35.30;79.00;;;;;;5038390;28;20425;-53
2023/08/14 08:14:14;;;;;;;3.73;2.70;;;36.40;69.80;;;;;;5036933;28;20445;-61
2023/08/14 08:16:44;;;;;;;5.80;4.20;;;37.40;62.60;;;;;;5035519;28;20533;-60
2023/08/14 08:19:11;;;;;;;8.60;3.77;;;38.20;58.40;;;;;;5036350;28;20435;-59
2023/08/14 08:21:38;;;;;;;4.67;3.43;;;38.70;57.10;;;;;;5025786;28;20496;-59
2023/08/14 08:24:08;;;;;;;6.50;3.63;;;38.70;54.50;;;;;;5024606;28;20857;-63
2023/08/14 08:26:36;;;;;;;4.50;3.20;;;38.90;54.40;;;;;;5017706;28;20925;-60
2023/08/14 08:29:05;;;;;;;7.00;3.07;;;39.00;52.00;;;;;;5015309;28;20495;-61
2023/08/14 08:31:32;;;;;;;3.57;3.27;;;38.90;51.40;;;;;;5014879;28;20452;-59
2023/08/14 08:34:00;;;;;;;4.70;3.03;;;38.90;50.70;;;;;;5014787;28;20984;-63
2023/08/14 08:36:27;;;;;;;4.57;3.23;;;38.80;50.40;;;;;;5014932;28;20547;-58
2023/08/14 08:38:54;;;;;;;4.53;3.47;;;38.90;50.20;;;;;;5014769;28;20918;-61
2023/08/14 08:41:26;;;;;;;4.93;3.50;;;39.10;49.50;;;;;;5015417;28;20444;-60
2023/08/14 08:44:00;;;;;;;5.43;3.60;;;39.10;47.70;;;;;;5015186;28;20472;-61
2023/08/14 08:46:28;;;;;;;4.60;3.40;;;39.10;48.50;;;;;;5014926;28;20472;-62
2023/08/14 08:48:55;;;;;;;4.90;3.47;;;38.70;48.30;;;;;;5015990;28;20559;-63
2023/08/14 08:51:25;;;;;;;7.50;5.20;;;38.40;48.90;;;;;;5017211;28;20445;-59
2023/08/14 08:53:52;;;;;;;18.37;12.87;;;38.20;49.10;;;;;;5018818;28;20552;-61
2023/08/14 08:56:19;;;;;;;5.10;4.20;;;38.20;49.80;;;;;;5020768;28;20861;-60
2023/08/14 08:58:46;;;;;;;4.33;3.83;;;38.30;49.00;;;;;;5020926;28;20540;-63
2023/08/14 09:01:16;;;;;;;4.90;3.20;;;38.40;47.30;;;;;;5020219;28;20465;-61
2023/08/14 09:03:43;;;;;;;3.10;2.80;;;38.20;47.70;;;;;;5017447;28;20453;-61
2023/08/14 09:06:10;;;;;;;2.83;2.60;;;37.90;48.20;;;;;;5014880;28;20855;-62
2023/08/14 09:08:39;;;;;;;6.97;2.87;;;38.00;48.40;;;;;;5014906;28;20445;-61
2023/08/14 09:11:05;;;;;;;3.37;2.40;;;38.00;49.00;;;;;;5014795;28;20527;-61
2023/08/14 09:13:33;;;;;;;4.00;2.73;;;38.00;47.60;;;;;;5014633;28;20516;-63
2023/08/14 09:16:01;;;;;;;11.97;2.90;;;37.90;45.80;;;;;;5014468;28;20965;-61
2023/08/14 09:18:28;;;;;;;2.40;2.10;;;37.80;46.00;;;;;;5014495;28;20461;-62
2023/08/14 09:20:55;;;;;;;3.27;2.40;;;37.90;46.90;;;;;;5014775;28;20445;-62
2023/08/14 09:23:24;;;;;;;2.70;2.50;;;38.00;45.40;;;;;;5014415;28;20465;-63
2023/08/14 09:25:53;;;;;;;4.53;3.10;;;38.00;45.80;;;;;;5014749;28;20885;-59
2023/08/14 09:28:20;;;;;;;2.70;2.47;;;38.10;46.30;;;;;;5018773;28;21037;-61
2023/08/14 09:30:47;;;;;;;5.70;4.17;;;38.10;46.30;;;;;;5027074;28;20479;-63
2023/08/14 09:33:14;;;;;;;4.23;3.20;;;38.10;46.50;;;;;;5022015;28;20483;-61
2023/08/14 09:35:41;;;;;;;4.37;3.50;;;37.90;46.30;;;;;;5014940;28;21016;-62
2023/08/14 09:38:08;;;;;;;14.03;7.03;;;37.90;47.00;;;;;;5015766;28;20500;-64
2023/08/14 09:40:36;;;;;;;4.20;3.17;;;37.60;47.20;;;;;;5015730;28;20465;-69
2023/08/14 09:43:05;;;;;;;5.27;3.60;;;37.40;48.70;;;;;;5014231;28;20537;-63
2023/08/14 09:45:34;;;;;;;3.50;3.13;;;37.60;47.80;;;;;;5014092;28;21027;-66
2023/08/14 09:48:03;;;;;;;5.70;3.17;;;37.60;46.70;;;;;;5014362;28;20813;-63
2023/08/14 09:50:31;;;;;;;8.27;6.63;;;37.90;45.70;;;;;;5016123;28;20496;-66
2023/08/14 09:52:59;;;;;;;4.70;3.43;;;38.20;45.90;;;;;;5019678;28;20495;-66
2023/08/14 09:55:28;;;;;;;3.80;2.70;;;38.10;46.10;;;;;;5020105;28;20492;-66
2023/08/14 09:57:55;;;;;;;3.33;3.03;;;37.90;46.70;;;;;;5023855;28;20560;-64
2023/08/14 10:00:26;;;;;;;2.93;2.30;;;37.90;47.30;;;;;;5024304;28;20498;-62
2023/08/14 10:02:53;;;;;;;10.50;7.63;;;38.00;47.50;;;;;;5025154;28;20606;-60
2023/08/14 10:05:21;;;;;;;4.40;3.83;;;38.30;47.00;;;;;;5030631;28;20531;-62
2023/08/14 10:07:50;;;;;;;3.43;2.57;;;38.40;48.00;;;;;;5031785;28;20465;-62
2023/08/14 10:10:19;;;;;;;4.97;2.70;;;38.60;46.20;;;;;;5030617;28;20527;-61
2023/08/14 10:12:52;;;;;;;3.20;2.70;;;38.50;45.90;;;;;;5032205;28;20500;-62
2023/08/14 10:15:30;;;;;;;4.47;2.30;;;38.50;45.90;;;;;;5023617;28;20523;-61
2023/08/14 10:17:58;;;;;;;3.20;2.30;;;38.20;46.30;;;;;;5022526;28;20429;-64
2023/08/14 10:20:28;;;;;;;4.10;2.70;;;37.50;46.10;;;;;;5022125;28;20476;-62
2023/08/14 10:22:55;;;;;;;4.33;2.37;;;37.20;47.70;;;;;;5021644;28;20486;-62
2023/08/14 10:25:23;;;;;;;3.00;2.43;;;37.10;47.00;;;;;;5021611;28;20505;-61
2023/08/14 10:27:51;;;;;;;3.90;3.33;;;36.90;46.30;;;;;;5019699;28;20515;-63
2023/08/14 10:30:18;;;;;;;3.80;3.33;;;36.70;47.30;;;;;;5022622;28;20469;-64
2023/08/14 10:32:48;;;;;;;2.67;2.47;;;36.50;47.50;;;;;;5024594;28;20479;-66
2023/08/14 10:35:15;;;;;;;3.77;2.70;;;36.40;47.80;;;;;;5019501;28;20484;-62
2023/08/14 10:37:44;;;;;;;3.30;2.83;;;36.40;47.70;;;;;;5014704;28;20434;-64
2023/08/14 10:40:17;;;;;;;3.73;2.90;;;36.40;47.90;;;;;;5009146;28;20457;-61
2023/08/14 10:42:47;;;;;;;4.00;2.20;;;36.10;47.90;;;;;;5009808;28;20470;-65
2023/08/14 10:45:18;;;;;;;3.00;2.30;;;35.90;48.30;;;;;;5009996;28;20446;-65
2023/08/14 10:47:46;;;;;;;3.83;2.60;;;35.60;48.30;;;;;;5009507;28;20484;-64
2023/08/14 10:50:15;;;;;;;3.80;2.30;;;35.30;48.40;;;;;;5009276;28;20462;-63
2023/08/14 10:52:48;;;;;;;2.93;2.23;;;35.10;49.10;;;;;;5018832;28;20492;-64
2023/08/14 10:55:17;;;;;;;3.20;2.50;;;35.00;49.60;;;;;;5027585;28;20488;-61
2023/08/14 10:57:45;;;;;;;3.80;2.40;;;34.80;50.30;;;;;;5027348;28;20523;-62
2023/08/14 11:00:23;;;;;;;2.97;2.40;;;34.50;50.40;;;;;;5027346;28;21009;-69
2023/08/14 11:02:54;;;;;;;3.33;2.70;;;34.20;51.10;;;;;;5026167;28;20507;-61
2023/08/14 11:05:21;;;;;;;3.50;2.40;;;34.10;51.00;;;;;;5026934;28;20480;-63
2023/08/14 11:07:59;;;;;;;2.50;2.10;;;34.10;51.10;;;;;;5026907;28;20540;-61
2023/08/14 11:10:27;;;;;;;5.20;3.00;;;34.10;52.10;;;;;;5005005;28;20466;-64
2023/08/14 11:12:57;;;;;;;3.40;2.37;;;34.10;53.20;;;;;;5005352;28;20468;-64
2023/08/14 11:15:25;;;;;;;3.77;2.83;;;34.00;51.90;;;;;;5004349;28;20589;-66
2023/08/14 11:17:54;;;;;;;5.60;2.90;;;33.90;51.40;;;;;;5004019;28;20529;-64
2023/08/14 11:20:21;;;;;;;3.00;2.33;;;33.80;51.60;;;;;;5025238;28;20957;-64
2023/08/14 11:22:48;;;;;;;3.60;2.30;;;33.80;52.20;;;;;;5027689;28;20485;-65
2023/08/14 11:25:16;;;;;;;2.57;2.23;;;33.90;52.60;;;;;;5025589;28;20487;-63
2023/08/14 11:27:48;;;;;;;4.17;2.37;;;33.60;52.40;;;;;;5024897;28;20580;-62
2023/08/14 11:30:15;;;;;;;4.23;2.90;;;33.40;52.50;;;;;;5023587;28;20495;-63
2023/08/14 11:32:43;;;;;;;4.10;2.30;;;33.30;53.20;;;;;;5024265;28;20457;-66
2023/08/14 11:35:11;;;;;;;3.77;2.67;;;33.30;53.50;;;;;;5024264;28;20461;-64
2023/08/14 11:37:39;;;;;;;3.53;2.33;;;33.30;54.40;;;;;;5024353;28;20845;-63
2023/08/14 11:40:09;;;;;;;4.27;2.60;;;33.10;53.70;;;;;;5024316;28;20435;-60
2023/08/14 11:42:36;;;;;;;3.03;2.63;;;32.70;54.70;;;;;;5024546;28;20821;-62
2023/08/14 11:45:05;;;;;;;3.30;2.67;;;32.60;55.40;;;;;;5024686;28;20448;-64
2023/08/14 11:47:35;;;;;;;4.10;3.10;;;32.60;56.20;;;;;;5025639;28;20461;-61
2023/08/14 11:50:03;;;;;;;3.90;2.70;;;32.50;56.50;;;;;;5025045;28;20500;-62
2023/08/14 11:52:32;;;;;;;4.13;3.43;;;32.40;57.10;;;;;;5025512;28;20507;-58
2023/08/14 11:55:00;;;;;;;3.40;3.10;;;32.30;56.80;;;;;;5024955;28;20942;-61
2023/08/14 11:57:27;;;;;;;4.47;3.20;;;32.20;56.80;;;;;;5026724;28;20480;-62
2023/08/14 11:59:55;;;;;;;4.50;3.00;;;32.10;57.10;;;;;;5028661;28;20433;-65
2023/08/14 12:02:23;;;;;;;5.63;3.47;;;32.00;57.50;;;;;;5028348;28;20453;-65
2023/08/14 12:04:53;;;;;;;2.90;2.60;;;32.10;58.20;;;;;;5026739;28;20540;-64
2023/08/14 12:07:20;;;;;;;6.00;3.37;;;32.20;58.20;;;;;;5026001;28;20472;-65
2023/08/14 12:09:50;;;;;;;3.77;2.93;;;32.30;57.90;;;;;;5026587;28;20445;-64
2023/08/14 12:12:18;;;;;;;3.57;3.27;;;32.30;59.50;;;;;;5025754;28;20483;-67
2023/08/14 12:14:47;;;;;;;8.17;3.57;;;32.30;57.60;;;;;;5025456;28;20464;-68
2023/08/14 12:17:15;;;;;;;4.03;3.30;;;32.20;57.60;;;;;;5026279;28;20496;-62
2023/08/14 12:19:43;;;;;;;4.00;2.87;;;32.20;57.90;;;;;;5026866;28;20441;-61
2023/08/14 12:22:10;;;;;;;3.60;2.80;;;32.20;59.10;;;;;;5026555;28;20453;-67
2023/08/14 12:24:39;;;;;;;4.37;3.40;;;32.10;57.70;;;;;;5027456;28;20449;-64
2023/08/14 12:27:14;;;;;;;6.30;2.90;;;32.10;57.70;;;;;;5027246;28;20445;-63
2023/08/14 12:29:41;;;;;;;3.70;2.83;;;32.10;58.90;;;;;;5027560;28;20476;-63
2023/08/14 12:32:08;;;;;;;4.10;2.93;;;31.90;57.90;;;;;;5030428;28;20449;-66
2023/08/14 12:34:34;;;;;;;5.50;3.17;;;31.80;58.00;;;;;;5008157;28;20830;-64
2023/08/14 12:37:02;;;;;;;5.97;2.87;;;31.70;57.70;;;;;;5024456;28;20504;-65
2023/08/14 12:39:29;;;;;;;4.80;2.70;;;31.50;58.20;;;;;;5025366;28;20473;-63
2023/08/14 12:41:59;;;;;;;3.87;2.50;;;31.50;58.40;;;;;;5025788;28;20484;-63
2023/08/14 12:44:28;;;;;;;2.40;2.20;;;31.50;58.30;;;;;;5025603;28;20540;-61
2023/08/14 12:46:56;;;;;;;5.93;2.60;;;31.50;57.90;;;;;;5026811;28;20437;-62
2023/08/14 12:49:23;;;;;;;4.03;2.30;;;31.60;57.90;;;;;;5026562;28;20465;-59
2023/08/14 12:51:52;;;;;;;3.40;2.20;;;31.60;58.40;;;;;;5027772;28;20430;-64